sensor_id;sensor_type;location;lat;lon;timestamp;temperature;humidity
4910;DHT22;2470;49.868;8.660;2023-09-07T00:02:07;21.20;99.90
4910;DHT22;2470;49.868;8.660;2023-09-07T00:04:33;21.20;99.90
4910;DHT22;2470;49.868;8.660;2023-09-07T00:06:58;21.10;99.90
4910;DHT22;2470;49.868;8.660;2023-09-07T00:09:24;21.10;99.90
4910;DHT22;2470;49.868;8.660;2023-09-07T00:11:52;21.10;99.90
4910;DHT22;2470;49.868;8.660;2023-09-07T00:14:17;21.10;99.90
4910;DHT22;2470;49.868;8.660;2023-09-07T00:16:43;21.10;99.90
4910;DHT22;2470;49.868;8.660;2023-09-07T00:19:08;21.10;99.90
4910;DHT22;2470;49.868;8.660;2023-09-07T00:21:34;21.10;99.90
4910;DHT22;2470;49.868;8.660;2023-09-07T00:23:59;21.10;99.90
4910;DHT22;2470;49.868;8.660;2023-09-07T00:26:29;21.10;99.90
4910;DHT22;2470;49.868;8.660;2023-09-07T00:28:56;21.00;99.90
4910;DHT22;2470;49.868;8.660;2023-09-07T00:31:21;21.00;99.90
4910;DHT22;2470;49.868;8.660;2023-09-07T00:33:47;21.00;99.90
4910;DHT22;2470;49.868;8.660;2023-09-07T00:36:12;21.00;99.90
4910;DHT22;2470;49.868;8.660;2023-09-07T00:38:38;21.00;99.90
4910;DHT22;2470;49.868;8.660;2023-09-07T00:41:03;21.00;99.90
4910;DHT22;2470;49.868;8.660;2023-09-07T00:43:29;21.00;99.90
4910;DHT22;2470;49.868;8.660;2023-09-07T00:45:55;21.00;99.90
4910;DHT22;2470;49.868;8.660;2023-09-07T00:48:21;20.90;99.90
4910;DHT22;2470;49.868;8.660;2023-09-07T00:50:47;20.90;99.90
4910;DHT22;2470;49.868;8.660;2023-09-07T00:53:13;20.90;99.90
4910;DHT22;2470;49.868;8.660;2023-09-07T00:55:39;20.90;99.90
4910;DHT22;2470;49.868;8.660;2023-09-07T00:58:05;20.90;99.90
4910;DHT22;2470;49.868;8.660;2023-09-07T01:00:31;20.90;99.90
4910;DHT22;2470;49.868;8.660;2023-09-07T01:02:56;20.80;99.90
4910;DHT22;2470;49.868;8.660;2023-09-07T01:05:39;20.80;99.90
4910;DHT22;2470;49.868;8.660;2023-09-07T01:08:15;20.80;99.90
4910;DHT22;2470;49.868;8.660;2023-09-07T01:10:43;20.70;99.90
4910;DHT22;2470;49.868;8.660;2023-09-07T01:13:09;20.70;99.90
4910;DHT22;2470;49.868;8.660;2023-09-07T01:15:35;20.70;99.90
4910;DHT22;2470;49.868;8.660;2023-09-07T01:18:01;20.60;99.90
4910;DHT22;2470;49.868;8.660;2023-09-07T01:20:29;20.60;99.90
4910;DHT22;2470;49.868;8.660;2023-09-07T01:22:55;20.60;99.90
4910;DHT22;2470;49.868;8.660;2023-09-07T01:25:21;20.60;99.90
4910;DHT22;2470;49.868;8.660;2023-09-07T01:27:47;20.50;99.90
4910;DHT22;2470;49.868;8.660;2023-09-07T01:30:13;20.50;99.90
4910;DHT22;2470;49.868;8.660;2023-09-07T01:32:38;20.50;99.90
4910;DHT22;2470;49.868;8.660;2023-09-07T01:35:06;20.50;99.90
4910;DHT22;2470;49.868;8.660;2023-09-07T01:37:35;20.50;99.90
4910;DHT22;2470;49.868;8.660;2023-09-07T01:40:00;20.50;99.90
4910;DHT22;2470;49.868;8.660;2023-09-07T01:42:26;20.40;99.90
4910;DHT22;2470;49.868;8.660;2023-09-07T01:44:51;20.40;99.90
4910;DHT22;2470;49.868;8.660;2023-09-07T01:47:17;20.30;99.90
4910;DHT22;2470;49.868;8.660;2023-09-07T01:49:42;20.30;99.90
4910;DHT22;2470;49.868;8.660;2023-09-07T01:52:08;20.30;99.90
4910;DHT22;2470;49.868;8.660;2023-09-07T01:54:33;20.20;99.90
4910;DHT22;2470;49.868;8.660;2023-09-07T01:56:59;20.20;99.90
4910;DHT22;2470;49.868;8.660;2023-09-07T01:59:24;20.20;99.90
4910;DHT22;2470;49.868;8.660;2023-09-07T02:01:50;20.20;99.90
4910;DHT22;2470;49.868;8.660;2023-09-07T02:04:16;20.20;99.90
4910;DHT22;2470;49.868;8.660;2023-09-07T02:06:41;20.20;99.90
4910;DHT22;2470;49.868;8.660;2023-09-07T02:09:07;20.20;99.90
4910;DHT22;2470;49.868;8.660;2023-09-07T02:11:33;20.20;99.90
4910;DHT22;2470;49.868;8.660;2023-09-07T02:13:59;20.20;99.90
4910;DHT22;2470;49.868;8.660;2023-09-07T02:16:24;20.20;99.90
4910;DHT22;2470;49.868;8.660;2023-09-07T02:18:50;20.20;99.90
4910;DHT22;2470;49.868;8.660;2023-09-07T02:21:16;20.10;99.90
4910;DHT22;2470;49.868;8.660;2023-09-07T02:23:41;20.20;99.90
4910;DHT22;2470;49.868;8.660;2023-09-07T02:26:07;20.10;99.90
4910;DHT22;2470;49.868;8.660;2023-09-07T02:28:32;20.10;99.90
4910;DHT22;2470;49.868;8.660;2023-09-07T02:31:05;20.10;99.90
4910;DHT22;2470;49.868;8.660;2023-09-07T02:33:31;20.00;99.90
4910;DHT22;2470;49.868;8.660;2023-09-07T02:35:57;20.00;99.90
4910;DHT22;2470;49.868;8.660;2023-09-07T02:38:23;20.00;99.90
4910;DHT22;2470;49.868;8.660;2023-09-07T02:40:48;20.00;99.90
4910;DHT22;2470;49.868;8.660;2023-09-07T02:43:14;20.00;99.90
4910;DHT22;2470;49.868;8.660;2023-09-07T02:45:39;20.00;99.90
4910;DHT22;2470;49.868;8.660;2023-09-07T02:48:05;20.00;99.90
4910;DHT22;2470;49.868;8.660;2023-09-07T02:50:33;20.00;99.90
4910;DHT22;2470;49.868;8.660;2023-09-07T02:53:00;20.00;99.90
4910;DHT22;2470;49.868;8.660;2023-09-07T02:55:26;20.00;99.90
4910;DHT22;2470;49.868;8.660;2023-09-07T02:57:52;20.00;99.90
4910;DHT22;2470;49.868;8.660;2023-09-07T03:00:18;19.90;99.90
4910;DHT22;2470;49.868;8.660;2023-09-07T03:02:44;19.90;99.90
4910;DHT22;2470;49.868;8.660;2023-09-07T03:05:09;19.90;99.90
4910;DHT22;2470;49.868;8.660;2023-09-07T03:07:35;19.90;99.90
4910;DHT22;2470;49.868;8.660;2023-09-07T03:10:01;19.90;99.90
4910;DHT22;2470;49.868;8.660;2023-09-07T03:12:27;19.90;99.90
4910;DHT22;2470;49.868;8.660;2023-09-07T03:14:53;19.80;99.90
4910;DHT22;2470;49.868;8.660;2023-09-07T03:17:18;19.80;99.90
4910;DHT22;2470;49.868;8.660;2023-09-07T03:19:46;19.80;99.90
4910;DHT22;2470;49.868;8.660;2023-09-07T03:22:11;19.80;99.90
4910;DHT22;2470;49.868;8.660;2023-09-07T03:24:37;19.80;99.90
4910;DHT22;2470;49.868;8.660;2023-09-07T03:27:03;19.80;99.90
4910;DHT22;2470;49.868;8.660;2023-09-07T03:29:29;19.70;99.90
4910;DHT22;2470;49.868;8.660;2023-09-07T03:31:55;19.70;99.90
4910;DHT22;2470;49.868;8.660;2023-09-07T03:34:20;19.60;99.90
4910;DHT22;2470;49.868;8.660;2023-09-07T03:36:46;19.60;99.90
4910;DHT22;2470;49.868;8.660;2023-09-07T03:39:12;19.60;99.90
4910;DHT22;2470;49.868;8.660;2023-09-07T03:41:37;19.60;99.90
4910;DHT22;2470;49.868;8.660;2023-09-07T03:44:03;19.60;99.90
4910;DHT22;2470;49.868;8.660;2023-09-07T03:46:29;19.60;99.90
4910;DHT22;2470;49.868;8.660;2023-09-07T03:48:54;19.50;99.90
4910;DHT22;2470;49.868;8.660;2023-09-07T03:51:20;19.50;99.90
4910;DHT22;2470;49.868;8.660;2023-09-07T03:53:45;19.50;99.90
4910;DHT22;2470;49.868;8.660;2023-09-07T03:56:11;19.50;99.90
4910;DHT22;2470;49.868;8.660;2023-09-07T03:58:36;19.50;99.90
4910;DHT22;2470;49.868;8.660;2023-09-07T04:01:02;19.50;99.90
4910;DHT22;2470;49.868;8.660;2023-09-07T04:03:28;19.40;99.90
4910;DHT22;2470;49.868;8.660;2023-09-07T04:05:53;19.40;99.90
4910;DHT22;2470;49.868;8.660;2023-09-07T04:08:19;19.40;99.90
4910;DHT22;2470;49.868;8.660;2023-09-07T04:10:44;19.40;99.90
4910;DHT22;2470;49.868;8.660;2023-09-07T04:13:10;19.30;99.90
4910;DHT22;2470;49.868;8.660;2023-09-07T04:15:42;19.30;99.90
4910;DHT22;2470;49.868;8.660;2023-09-07T04:18:09;19.20;99.90
4910;DHT22;2470;49.868;8.660;2023-09-07T04:20:35;19.20;99.90
4910;DHT22;2470;49.868;8.660;2023-09-07T04:23:00;19.10;99.90
4910;DHT22;2470;49.868;8.660;2023-09-07T04:25:26;19.10;99.90
4910;DHT22;2470;49.868;8.660;2023-09-07T04:27:51;19.00;99.90
4910;DHT22;2470;49.868;8.660;2023-09-07T04:30:17;19.00;99.90
4910;DHT22;2470;49.868;8.660;2023-09-07T04:32:42;19.00;99.90
4910;DHT22;2470;49.868;8.660;2023-09-07T04:35:08;19.00;99.90
4910;DHT22;2470;49.868;8.660;2023-09-07T04:37:34;19.00;99.90
4910;DHT22;2470;49.868;8.660;2023-09-07T04:39:59;19.00;99.90
4910;DHT22;2470;49.868;8.660;2023-09-07T04:42:25;19.00;99.90
4910;DHT22;2470;49.868;8.660;2023-09-07T04:44:50;19.00;99.90
4910;DHT22;2470;49.868;8.660;2023-09-07T04:47:16;18.90;99.90
4910;DHT22;2470;49.868;8.660;2023-09-07T04:49:42;18.90;99.90
4910;DHT22;2470;49.868;8.660;2023-09-07T04:52:07;18.90;99.90
4910;DHT22;2470;49.868;8.660;2023-09-07T04:54:34;18.90;99.90
4910;DHT22;2470;49.868;8.660;2023-09-07T04:57:00;18.90;99.90
4910;DHT22;2470;49.868;8.660;2023-09-07T04:59:25;19.00;99.90
4910;DHT22;2470;49.868;8.660;2023-09-07T05:01:51;19.00;99.90
4910;DHT22;2470;49.868;8.660;2023-09-07T05:04:16;19.00;99.90
4910;DHT22;2470;49.868;8.660;2023-09-07T05:06:42;19.00;99.90
4910;DHT22;2470;49.868;8.660;2023-09-07T05:09:08;19.00;99.90
4910;DHT22;2470;49.868;8.660;2023-09-07T05:11:34;19.10;99.90
4910;DHT22;2470;49.868;8.660;2023-09-07T05:14:01;19.10;99.90
4910;DHT22;2470;49.868;8.660;2023-09-07T05:16:27;19.10;99.90
4910;DHT22;2470;49.868;8.660;2023-09-07T05:18:53;19.20;99.90
4910;DHT22;2470;49.868;8.660;2023-09-07T05:21:18;19.30;99.90
4910;DHT22;2470;49.868;8.660;2023-09-07T05:23:44;19.30;99.90
4910;DHT22;2470;49.868;8.660;2023-09-07T05:26:09;19.40;99.90
4910;DHT22;2470;49.868;8.660;2023-09-07T05:28:35;19.40;99.90
4910;DHT22;2470;49.868;8.660;2023-09-07T05:31:00;19.40;99.90
4910;DHT22;2470;49.868;8.660;2023-09-07T05:33:26;19.50;99.90
4910;DHT22;2470;49.868;8.660;2023-09-07T05:35:51;19.50;99.90
4910;DHT22;2470;49.868;8.660;2023-09-07T05:38:17;19.60;99.90
4910;DHT22;2470;49.868;8.660;2023-09-07T05:40:44;19.60;99.90
4910;DHT22;2470;49.868;8.660;2023-09-07T05:43:10;19.60;99.90
4910;DHT22;2470;49.868;8.660;2023-09-07T05:45:38;19.70;99.90
4910;DHT22;2470;49.868;8.660;2023-09-07T05:48:04;19.70;99.90
4910;DHT22;2470;49.868;8.660;2023-09-07T05:50:33;19.70;99.90
4910;DHT22;2470;49.868;8.660;2023-09-07T05:52:59;19.70;99.90
4910;DHT22;2470;49.868;8.660;2023-09-07T05:55:24;19.80;99.90
4910;DHT22;2470;49.868;8.660;2023-09-07T05:57:50;19.80;99.90
4910;DHT22;2470;49.868;8.660;2023-09-07T06:00:15;19.90;99.90
4910;DHT22;2470;49.868;8.660;2023-09-07T06:02:43;19.90;99.90
4910;DHT22;2470;49.868;8.660;2023-09-07T06:05:09;19.90;99.90
4910;DHT22;2470;49.868;8.660;2023-09-07T06:07:35;19.90;99.90
4910;DHT22;2470;49.868;8.660;2023-09-07T06:10:01;19.90;99.90
4910;DHT22;2470;49.868;8.660;2023-09-07T06:12:26;20.00;99.90
4910;DHT22;2470;49.868;8.660;2023-09-07T06:14:52;20.00;99.90
4910;DHT22;2470;49.868;8.660;2023-09-07T06:17:17;20.10;99.90
4910;DHT22;2470;49.868;8.660;2023-09-07T06:19:44;20.10;99.90
4910;DHT22;2470;49.868;8.660;2023-09-07T06:22:09;20.10;99.90
4910;DHT22;2470;49.868;8.660;2023-09-07T06:24:35;20.20;99.90
4910;DHT22;2470;49.868;8.660;2023-09-07T06:27:00;20.20;99.90
4910;DHT22;2470;49.868;8.660;2023-09-07T06:29:26;20.20;99.90
4910;DHT22;2470;49.868;8.660;2023-09-07T06:31:51;20.30;99.90
4910;DHT22;2470;49.868;8.660;2023-09-07T06:34:17;20.40;99.90
4910;DHT22;2470;49.868;8.660;2023-09-07T06:36:43;20.40;99.90
4910;DHT22;2470;49.868;8.660;2023-09-07T06:39:08;20.50;99.90
4910;DHT22;2470;49.868;8.660;2023-09-07T06:41:34;20.50;99.90
4910;DHT22;2470;49.868;8.660;2023-09-07T06:44:00;20.60;99.90
4910;DHT22;2470;49.868;8.660;2023-09-07T06:46:25;20.60;99.90
4910;DHT22;2470;49.868;8.660;2023-09-07T06:48:51;20.70;99.90
4910;DHT22;2470;49.868;8.660;2023-09-07T06:51:16;20.70;99.90
4910;DHT22;2470;49.868;8.660;2023-09-07T06:53:42;20.80;99.90
4910;DHT22;2470;49.868;8.660;2023-09-07T06:56:07;20.90;99.90
4910;DHT22;2470;49.868;8.660;2023-09-07T06:58:33;20.90;99.90
4910;DHT22;2470;49.868;8.660;2023-09-07T07:00:59;21.00;99.90
4910;DHT22;2470;49.868;8.660;2023-09-07T07:03:27;21.10;99.90
4910;DHT22;2470;49.868;8.660;2023-09-07T07:05:53;21.10;99.90
4910;DHT22;2470;49.868;8.660;2023-09-07T07:08:19;21.20;99.90
4910;DHT22;2470;49.868;8.660;2023-09-07T07:10:44;21.20;99.90
4910;DHT22;2470;49.868;8.660;2023-09-07T07:16:02;21.30;99.90
4910;DHT22;2470;49.868;8.660;2023-09-07T07:18:30;21.30;99.90
4910;DHT22;2470;49.868;8.660;2023-09-07T07:20:55;21.40;99.90
4910;DHT22;2470;49.868;8.660;2023-09-07T07:23:21;21.50;99.90
4910;DHT22;2470;49.868;8.660;2023-09-07T07:25:46;21.50;99.90
4910;DHT22;2470;49.868;8.660;2023-09-07T07:28:12;21.60;99.90
4910;DHT22;2470;49.868;8.660;2023-09-07T07:30:39;21.70;99.90
4910;DHT22;2470;49.868;8.660;2023-09-07T07:33:08;21.70;99.90
4910;DHT22;2470;49.868;8.660;2023-09-07T07:35:34;21.80;99.90
4910;DHT22;2470;49.868;8.660;2023-09-07T07:38:00;21.80;99.90
4910;DHT22;2470;49.868;8.660;2023-09-07T07:40:26;21.80;99.90
4910;DHT22;2470;49.868;8.660;2023-09-07T07:42:53;21.90;99.90
4910;DHT22;2470;49.868;8.660;2023-09-07T07:45:19;21.90;99.90
4910;DHT22;2470;49.868;8.660;2023-09-07T07:47:45;22.00;99.90
4910;DHT22;2470;49.868;8.660;2023-09-07T07:50:11;22.00;99.90
4910;DHT22;2470;49.868;8.660;2023-09-07T07:52:37;22.10;99.90
4910;DHT22;2470;49.868;8.660;2023-09-07T07:55:02;22.20;99.90
4910;DHT22;2470;49.868;8.660;2023-09-07T07:57:28;22.20;99.90
4910;DHT22;2470;49.868;8.660;2023-09-07T07:59:56;22.20;99.90
4910;DHT22;2470;49.868;8.660;2023-09-07T08:02:21;22.30;99.90
4910;DHT22;2470;49.868;8.660;2023-09-07T08:04:47;22.30;99.90
4910;DHT22;2470;49.868;8.660;2023-09-07T08:07:12;22.40;99.90
4910;DHT22;2470;49.868;8.660;2023-09-07T08:09:38;22.50;99.90
4910;DHT22;2470;49.868;8.660;2023-09-07T08:12:05;22.50;99.90
4910;DHT22;2470;49.868;8.660;2023-09-07T08:14:30;22.60;99.90
4910;DHT22;2470;49.868;8.660;2023-09-07T08:16:57;22.60;99.90
4910;DHT22;2470;49.868;8.660;2023-09-07T08:19:23;22.60;99.90
4910;DHT22;2470;49.868;8.660;2023-09-07T08:21:48;22.70;99.90
4910;DHT22;2470;49.868;8.660;2023-09-07T08:24:14;22.70;99.90
4910;DHT22;2470;49.868;8.660;2023-09-07T08:26:40;22.70;99.90
4910;DHT22;2470;49.868;8.660;2023-09-07T08:29:06;22.80;99.90
4910;DHT22;2470;49.868;8.660;2023-09-07T08:31:32;22.80;99.90
4910;DHT22;2470;49.868;8.660;2023-09-07T08:34:00;22.90;99.90
4910;DHT22;2470;49.868;8.660;2023-09-07T08:36:25;22.90;99.90
4910;DHT22;2470;49.868;8.660;2023-09-07T08:38:53;23.00;99.90
4910;DHT22;2470;49.868;8.660;2023-09-07T08:41:20;23.00;99.90
4910;DHT22;2470;49.868;8.660;2023-09-07T08:43:46;23.00;99.90
4910;DHT22;2470;49.868;8.660;2023-09-07T08:46:18;23.10;99.90
4910;DHT22;2470;49.868;8.660;2023-09-07T08:48:46;23.20;99.90
4910;DHT22;2470;49.868;8.660;2023-09-07T08:51:13;23.30;99.90
4910;DHT22;2470;49.868;8.660;2023-09-07T08:53:40;23.30;99.90
4910;DHT22;2470;49.868;8.660;2023-09-07T08:56:07;23.40;99.90
4910;DHT22;2470;49.868;8.660;2023-09-07T08:58:36;23.50;99.90
4910;DHT22;2470;49.868;8.660;2023-09-07T09:01:02;23.50;99.90
4910;DHT22;2470;49.868;8.660;2023-09-07T09:03:27;23.50;99.90
4910;DHT22;2470;49.868;8.660;2023-09-07T09:05:55;23.60;99.90
4910;DHT22;2470;49.868;8.660;2023-09-07T09:08:21;23.60;99.90
4910;DHT22;2470;49.868;8.660;2023-09-07T09:10:58;23.70;99.90
4910;DHT22;2470;49.868;8.660;2023-09-07T09:13:28;23.70;99.90
4910;DHT22;2470;49.868;8.660;2023-09-07T09:15:54;23.70;99.90
4910;DHT22;2470;49.868;8.660;2023-09-07T09:18:20;23.70;99.90
4910;DHT22;2470;49.868;8.660;2023-09-07T09:20:45;23.80;99.90
4910;DHT22;2470;49.868;8.660;2023-09-07T09:23:11;23.80;99.90
4910;DHT22;2470;49.868;8.660;2023-09-07T09:25:41;23.90;99.90
4910;DHT22;2470;49.868;8.660;2023-09-07T09:28:09;23.90;99.90
4910;DHT22;2470;49.868;8.660;2023-09-07T09:30:35;23.90;99.90
4910;DHT22;2470;49.868;8.660;2023-09-07T09:33:01;24.00;99.90
4910;DHT22;2470;49.868;8.660;2023-09-07T09:35:28;24.00;99.90
4910;DHT22;2470;49.868;8.660;2023-09-07T09:37:55;24.00;99.90
4910;DHT22;2470;49.868;8.660;2023-09-07T09:40:20;24.00;99.90
4910;DHT22;2470;49.868;8.660;2023-09-07T09:42:46;24.10;99.90
4910;DHT22;2470;49.868;8.660;2023-09-07T09:45:13;24.20;99.90
4910;DHT22;2470;49.868;8.660;2023-09-07T09:47:40;24.30;99.90
4910;DHT22;2470;49.868;8.660;2023-09-07T09:50:10;24.30;99.90
4910;DHT22;2470;49.868;8.660;2023-09-07T09:52:36;24.30;99.90
4910;DHT22;2470;49.868;8.660;2023-09-07T09:55:05;24.40;99.90
4910;DHT22;2470;49.868;8.660;2023-09-07T09:57:36;24.40;99.90
4910;DHT22;2470;49.868;8.660;2023-09-07T10:00:03;24.50;99.90
4910;DHT22;2470;49.868;8.660;2023-09-07T10:02:51;24.50;99.90
4910;DHT22;2470;49.868;8.660;2023-09-07T10:05:19;24.60;99.90
4910;DHT22;2470;49.868;8.660;2023-09-07T10:07:48;24.60;99.90
4910;DHT22;2470;49.868;8.660;2023-09-07T10:10:15;24.60;99.90
4910;DHT22;2470;49.868;8.660;2023-09-07T10:12:44;24.60;99.90
4910;DHT22;2470;49.868;8.660;2023-09-07T10:15:24;24.70;99.90
4910;DHT22;2470;49.868;8.660;2023-09-07T10:17:50;24.80;99.90
4910;DHT22;2470;49.868;8.660;2023-09-07T10:20:18;24.80;99.90
4910;DHT22;2470;49.868;8.660;2023-09-07T10:22:44;24.90;99.90
4910;DHT22;2470;49.868;8.660;2023-09-07T10:25:21;25.00;99.90
4910;DHT22;2470;49.868;8.660;2023-09-07T10:27:46;25.00;99.90
4910;DHT22;2470;49.868;8.660;2023-09-07T10:30:12;25.00;99.90
4910;DHT22;2470;49.868;8.660;2023-09-07T10:32:39;25.00;99.50
4910;DHT22;2470;49.868;8.660;2023-09-07T10:35:15;25.00;99.80
4910;DHT22;2470;49.868;8.660;2023-09-07T10:37:44;25.10;99.80
4910;DHT22;2470;49.868;8.660;2023-09-07T10:40:12;25.10;99.80
4910;DHT22;2470;49.868;8.660;2023-09-07T10:42:39;25.20;99.60
4910;DHT22;2470;49.868;8.660;2023-09-07T10:45:11;25.20;99.60
4910;DHT22;2470;49.868;8.660;2023-09-07T10:47:42;25.30;99.70
4910;DHT22;2470;49.868;8.660;2023-09-07T10:50:13;25.40;99.60
4910;DHT22;2470;49.868;8.660;2023-09-07T10:52:40;25.40;99.30
4910;DHT22;2470;49.868;8.660;2023-09-07T10:55:07;25.50;99.10
4910;DHT22;2470;49.868;8.660;2023-09-07T10:57:41;25.50;99.00
4910;DHT22;2470;49.868;8.660;2023-09-07T11:00:07;25.70;98.10
4910;DHT22;2470;49.868;8.660;2023-09-07T11:02:37;25.70;98.10
4910;DHT22;2470;49.868;8.660;2023-09-07T11:05:02;25.80;98.20
4910;DHT22;2470;49.868;8.660;2023-09-07T11:07:28;25.90;98.00
4910;DHT22;2470;49.868;8.660;2023-09-07T11:09:54;25.90;97.70
4910;DHT22;2470;49.868;8.660;2023-09-07T11:12:20;26.00;97.30
4910;DHT22;2470;49.868;8.660;2023-09-07T11:14:50;26.00;97.40
4910;DHT22;2470;49.868;8.660;2023-09-07T11:17:16;26.10;97.20
4910;DHT22;2470;49.868;8.660;2023-09-07T11:19:42;26.20;96.90
4910;DHT22;2470;49.868;8.660;2023-09-07T11:22:11;26.20;96.70
4910;DHT22;2470;49.868;8.660;2023-09-07T11:24:36;26.30;96.80
4910;DHT22;2470;49.868;8.660;2023-09-07T11:27:02;26.40;96.60
4910;DHT22;2470;49.868;8.660;2023-09-07T11:29:31;26.50;96.30
4910;DHT22;2470;49.868;8.660;2023-09-07T11:32:10;26.60;95.90
4910;DHT22;2470;49.868;8.660;2023-09-07T11:34:47;26.70;95.40
4910;DHT22;2470;49.868;8.660;2023-09-07T11:37:14;26.70;95.40
4910;DHT22;2470;49.868;8.660;2023-09-07T11:39:40;26.80;95.30
4910;DHT22;2470;49.868;8.660;2023-09-07T11:42:05;26.80;95.40
4910;DHT22;2470;49.868;8.660;2023-09-07T11:44:31;26.80;95.10
4910;DHT22;2470;49.868;8.660;2023-09-07T11:46:56;27.00;94.70
4910;DHT22;2470;49.868;8.660;2023-09-07T11:49:22;27.10;94.40
4910;DHT22;2470;49.868;8.660;2023-09-07T11:51:47;27.20;93.70
4910;DHT22;2470;49.868;8.660;2023-09-07T11:54:13;27.30;93.50
4910;DHT22;2470;49.868;8.660;2023-09-07T11:56:38;27.40;93.30
4910;DHT22;2470;49.868;8.660;2023-09-07T11:59:08;27.50;93.10
4910;DHT22;2470;49.868;8.660;2023-09-07T12:01:34;27.60;92.80
4910;DHT22;2470;49.868;8.660;2023-09-07T12:04:00;27.70;92.70
4910;DHT22;2470;49.868;8.660;2023-09-07T12:06:25;27.70;92.50
4910;DHT22;2470;49.868;8.660;2023-09-07T12:09:02;27.90;92.60
4910;DHT22;2470;49.868;8.660;2023-09-07T12:11:28;28.00;92.10
4910;DHT22;2470;49.868;8.660;2023-09-07T12:13:54;28.20;91.60
4910;DHT22;2470;49.868;8.660;2023-09-07T12:16:20;28.30;91.10
4910;DHT22;2470;49.868;8.660;2023-09-07T12:18:45;28.40;90.00
4910;DHT22;2470;49.868;8.660;2023-09-07T12:21:11;28.50;90.00
4910;DHT22;2470;49.868;8.660;2023-09-07T12:23:36;28.90;89.20
4910;DHT22;2470;49.868;8.660;2023-09-07T12:26:02;29.40;88.10
4910;DHT22;2470;49.868;8.660;2023-09-07T12:28:30;29.90;86.00
4910;DHT22;2470;49.868;8.660;2023-09-07T12:30:56;30.60;83.60
4910;DHT22;2470;49.868;8.660;2023-09-07T12:33:21;31.50;80.60
4910;DHT22;2470;49.868;8.660;2023-09-07T12:35:47;32.20;78.60
4910;DHT22;2470;49.868;8.660;2023-09-07T12:38:12;33.10;74.50
4910;DHT22;2470;49.868;8.660;2023-09-07T12:40:42;34.00;70.40
4910;DHT22;2470;49.868;8.660;2023-09-07T12:43:09;34.90;68.00
4910;DHT22;2470;49.868;8.660;2023-09-07T12:45:34;35.90;63.40
4910;DHT22;2470;49.868;8.660;2023-09-07T12:48:01;37.20;59.60
4910;DHT22;2470;49.868;8.660;2023-09-07T12:50:27;38.30;57.00
4910;DHT22;2470;49.868;8.660;2023-09-07T12:52:53;39.30;54.60
4910;DHT22;2470;49.868;8.660;2023-09-07T12:55:19;40.40;51.80
4910;DHT22;2470;49.868;8.660;2023-09-07T12:57:45;41.50;48.50
4910;DHT22;2470;49.868;8.660;2023-09-07T13:00:12;42.30;47.00
4910;DHT22;2470;49.868;8.660;2023-09-07T13:02:37;43.50;44.50
4910;DHT22;2470;49.868;8.660;2023-09-07T13:05:03;44.50;42.20
4910;DHT22;2470;49.868;8.660;2023-09-07T13:07:31;45.40;40.20
4910;DHT22;2470;49.868;8.660;2023-09-07T13:09:57;46.40;39.10
4910;DHT22;2470;49.868;8.660;2023-09-07T13:12:23;47.00;37.70
4910;DHT22;2470;49.868;8.660;2023-09-07T13:14:49;47.60;36.30
4910;DHT22;2470;49.868;8.660;2023-09-07T13:17:14;48.20;35.20
4910;DHT22;2470;49.868;8.660;2023-09-07T13:19:41;48.80;33.70
4910;DHT22;2470;49.868;8.660;2023-09-07T13:22:06;49.20;33.30
4910;DHT22;2470;49.868;8.660;2023-09-07T13:24:33;49.80;32.50
4910;DHT22;2470;49.868;8.660;2023-09-07T13:26:58;50.80;31.20
4910;DHT22;2470;49.868;8.660;2023-09-07T13:29:24;51.50;30.30
4910;DHT22;2470;49.868;8.660;2023-09-07T13:31:51;51.90;29.90
4910;DHT22;2470;49.868;8.660;2023-09-07T13:34:19;52.30;29.20
4910;DHT22;2470;49.868;8.660;2023-09-07T13:36:45;52.90;28.50
4910;DHT22;2470;49.868;8.660;2023-09-07T13:39:11;53.40;28.00
4910;DHT22;2470;49.868;8.660;2023-09-07T13:41:36;53.60;27.60
4910;DHT22;2470;49.868;8.660;2023-09-07T13:44:02;54.30;26.90
4910;DHT22;2470;49.868;8.660;2023-09-07T13:46:27;54.40;26.80
4910;DHT22;2470;49.868;8.660;2023-09-07T13:48:53;54.40;26.90
4910;DHT22;2470;49.868;8.660;2023-09-07T13:51:19;54.60;26.40
4910;DHT22;2470;49.868;8.660;2023-09-07T13:53:45;54.80;26.00
4910;DHT22;2470;49.868;8.660;2023-09-07T13:56:10;55.10;25.80
4910;DHT22;2470;49.868;8.660;2023-09-07T13:58:36;55.40;25.50
4910;DHT22;2470;49.868;8.660;2023-09-07T14:01:01;55.50;25.50
4910;DHT22;2470;49.868;8.660;2023-09-07T14:03:27;55.40;25.10
4910;DHT22;2470;49.868;8.660;2023-09-07T14:05:52;55.50;24.00
4910;DHT22;2470;49.868;8.660;2023-09-07T14:08:18;55.40;24.10
4910;DHT22;2470;49.868;8.660;2023-09-07T14:10:49;55.30;24.40
4910;DHT22;2470;49.868;8.660;2023-09-07T14:13:14;55.10;24.30
4910;DHT22;2470;49.868;8.660;2023-09-07T14:15:40;55.00;24.50
4910;DHT22;2470;49.868;8.660;2023-09-07T14:18:05;55.30;23.80
4910;DHT22;2470;49.868;8.660;2023-09-07T14:20:31;54.90;23.60
4910;DHT22;2470;49.868;8.660;2023-09-07T14:22:57;53.60;24.00
4910;DHT22;2470;49.868;8.660;2023-09-07T14:25:23;52.00;24.40
4910;DHT22;2470;49.868;8.660;2023-09-07T14:27:49;49.30;25.30
4910;DHT22;2470;49.868;8.660;2023-09-07T14:30:14;46.80;26.20
4910;DHT22;2470;49.868;8.660;2023-09-07T14:32:40;44.00;27.40
4910;DHT22;2470;49.868;8.660;2023-09-07T14:35:06;41.50;29.30
4910;DHT22;2470;49.868;8.660;2023-09-07T14:37:31;39.40;31.10
4910;DHT22;2470;49.868;8.660;2023-09-07T14:39:57;37.90;32.40
4910;DHT22;2470;49.868;8.660;2023-09-07T14:42:24;36.70;33.80
4910;DHT22;2470;49.868;8.660;2023-09-07T14:44:50;35.70;35.70
4910;DHT22;2470;49.868;8.660;2023-09-07T14:47:15;35.00;36.80
4910;DHT22;2470;49.868;8.660;2023-09-07T14:49:41;34.40;38.10
4910;DHT22;2470;49.868;8.660;2023-09-07T14:52:07;33.90;39.00
4910;DHT22;2470;49.868;8.660;2023-09-07T14:54:32;33.40;39.80
4910;DHT22;2470;49.868;8.660;2023-09-07T14:56:58;33.20;40.40
4910;DHT22;2470;49.868;8.660;2023-09-07T14:59:23;32.80;40.50
4910;DHT22;2470;49.868;8.660;2023-09-07T15:01:49;32.50;40.90
4910;DHT22;2470;49.868;8.660;2023-09-07T15:04:14;32.30;41.60
4910;DHT22;2470;49.868;8.660;2023-09-07T15:06:40;32.20;42.10
4910;DHT22;2470;49.868;8.660;2023-09-07T15:09:06;32.00;42.80
4910;DHT22;2470;49.868;8.660;2023-09-07T15:11:31;31.80;42.80
4910;DHT22;2470;49.868;8.660;2023-09-07T15:13:57;31.60;43.00
4910;DHT22;2470;49.868;8.660;2023-09-07T15:16:22;31.50;43.10
4910;DHT22;2470;49.868;8.660;2023-09-07T15:18:51;31.30;44.00
4910;DHT22;2470;49.868;8.660;2023-09-07T15:21:17;31.20;44.40
4910;DHT22;2470;49.868;8.660;2023-09-07T15:23:43;31.00;44.90
4910;DHT22;2470;49.868;8.660;2023-09-07T15:26:08;30.90;44.70
4910;DHT22;2470;49.868;8.660;2023-09-07T15:28:37;30.80;46.30
4910;DHT22;2470;49.868;8.660;2023-09-07T15:31:03;30.70;47.30
4910;DHT22;2470;49.868;8.660;2023-09-07T15:33:29;30.60;48.20
4910;DHT22;2470;49.868;8.660;2023-09-07T15:35:55;30.50;48.70
4910;DHT22;2470;49.868;8.660;2023-09-07T15:38:20;30.40;48.70
4910;DHT22;2470;49.868;8.660;2023-09-07T15:40:47;30.30;49.00
4910;DHT22;2470;49.868;8.660;2023-09-07T15:43:13;30.10;48.60
4910;DHT22;2470;49.868;8.660;2023-09-07T15:45:39;30.10;49.20
4910;DHT22;2470;49.868;8.660;2023-09-07T15:48:05;30.00;50.40
4910;DHT22;2470;49.868;8.660;2023-09-07T15:50:31;30.00;50.60
4910;DHT22;2470;49.868;8.660;2023-09-07T15:52:56;30.00;50.70
4910;DHT22;2470;49.868;8.660;2023-09-07T15:55:22;29.90;50.20
4910;DHT22;2470;49.868;8.660;2023-09-07T15:57:47;29.80;50.10
4910;DHT22;2470;49.868;8.660;2023-09-07T16:00:14;29.80;50.00